createdAt,value
2022-08-27T00:04:38.671Z,0
2022-08-27T00:10:01.818Z,0
2022-08-27T00:15:24.066Z,0
2022-08-27T00:20:49.174Z,0
2022-08-27T00:26:11.673Z,0
2022-08-27T00:31:34.255Z,0
2022-08-27T00:42:22.722Z,0
2022-08-27T00:47:45.247Z,0
2022-08-27T00:53:08.219Z,0
2022-08-27T00:58:31.019Z,0
2022-08-27T01:03:53.493Z,0
2022-08-27T01:09:16.178Z,0
2022-08-27T01:14:44.694Z,0
2022-08-27T01:20:07.150Z,0
2022-08-27T01:25:29.682Z,0
2022-08-27T01:30:52.376Z,0
2022-08-27T01:36:15.913Z,0
2022-08-27T01:41:44.062Z,0
2022-08-27T01:47:06.666Z,0
2022-08-27T01:52:29.637Z,0
2022-08-27T01:57:52.226Z,0
2022-08-27T02:03:17.075Z,0
2022-08-27T02:08:39.804Z,0
2022-08-27T02:14:02.297Z,0
2022-08-27T02:19:38.497Z,0
2022-08-27T02:25:01.214Z,0
2022-08-27T02:30:23.582Z,0
2022-08-27T02:35:46.078Z,0
2022-08-27T02:41:10.866Z,0
2022-08-27T02:46:33.427Z,0
2022-08-27T02:51:56.564Z,0
2022-08-27T02:57:21.682Z,0
2022-08-27T03:02:44.380Z,0
2022-08-27T03:08:07.286Z,0
2022-08-27T03:13:30.462Z,0
2022-08-27T03:18:53.110Z,0
2022-08-27T03:24:15.637Z,0
2022-08-27T03:29:42.953Z,0
2022-08-27T03:35:08.215Z,0
2022-08-27T03:40:30.685Z,0
2022-08-27T03:46:01.129Z,0
2022-08-27T03:51:25.169Z,0
2022-08-27T03:56:58.215Z,0
2022-08-27T04:02:21.091Z,0
2022-08-27T04:07:43.757Z,0
2022-08-27T04:18:28.703Z,0
2022-08-27T04:23:53.633Z,0
2022-08-27T04:29:17.740Z,0
2022-08-27T04:34:40.385Z,0
2022-08-27T04:40:03.082Z,0
2022-08-27T04:45:25.846Z,0
2022-08-27T04:50:51.658Z,0
2022-08-27T04:56:14.326Z,0
2022-08-27T05:01:42.729Z,0
2022-08-27T05:07:05.389Z,0.1
2022-08-27T05:12:27.633Z,0.1
2022-08-27T05:17:52.972Z,0.1
2022-08-27T05:23:15.861Z,0.1
2022-08-27T05:28:41.382Z,0.1
2022-08-27T05:34:08.468Z,0.1
2022-08-27T05:39:49.608Z,0.1
2022-08-27T05:45:15.116Z,0.1
2022-08-27T05:50:37.723Z,0.1
2022-08-27T05:56:00.506Z,0.1
2022-08-27T06:01:26.727Z,0.2
2022-08-27T06:12:20.037Z,0.1
2022-08-27T06:17:50.834Z,0.2
2022-08-27T06:23:19.182Z,0.2
2022-08-27T06:28:51.393Z,0.2
2022-08-27T06:34:13.721Z,0.2
2022-08-27T06:39:39.141Z,0.2
2022-08-27T06:45:03.204Z,0.2
2022-08-27T06:50:27.157Z,0.3
2022-08-27T06:55:49.888Z,0.3
2022-08-27T07:01:15.556Z,0.3
2022-08-27T07:06:38.753Z,0.4
2022-08-27T07:12:01.311Z,0.4
2022-08-27T07:17:26.563Z,0.4
2022-08-27T07:22:49.282Z,0.4
2022-08-27T07:28:11.998Z,0.4
2022-08-27T07:33:35.428Z,0.5
2022-08-27T07:39:13.032Z,0.5
2022-08-27T07:44:38.763Z,0.6
2022-08-27T07:50:03.370Z,0.6
2022-08-27T07:55:26.006Z,0.6
2022-08-27T08:00:48.626Z,0.6
2022-08-27T08:11:33.901Z,0.5
2022-08-27T08:16:59.298Z,0.5
2022-08-27T08:22:21.847Z,0.5
2022-08-27T08:27:47.356Z,0.6
2022-08-27T08:33:12.809Z,0.6
2022-08-27T08:38:39.050Z,0.6
2022-08-27T08:44:05.432Z,0.6
2022-08-27T08:49:28.544Z,0.7
2022-08-27T08:54:50.934Z,0.7
2022-08-27T09:00:17.463Z,0.7
2022-08-27T09:05:40.628Z,0.7
2022-08-27T09:11:02.852Z,0.7
2022-08-27T09:17:07.184Z,0.7
2022-08-27T09:22:34.545Z,0.9
2022-08-27T09:27:59.781Z,0.8
2022-08-27T09:33:40.994Z,0.8
2022-08-27T09:39:19.952Z,0.8
2022-08-27T09:44:42.283Z,0.7
2022-08-27T09:50:07.767Z,0.8
2022-08-27T09:55:30.367Z,0.9
2022-08-27T10:00:53.035Z,0.9
2022-08-27T10:06:18.768Z,0.9
2022-08-27T10:17:03.600Z,0.9
2022-08-27T10:22:26.103Z,0.9
2022-08-27T10:27:48.546Z,1
2022-08-27T10:33:23.342Z,1
2022-08-27T10:38:50.470Z,0.9
2022-08-27T10:44:12.911Z,0.8
2022-08-27T10:49:35.491Z,0.9
2022-08-27T10:54:58.162Z,0.9
2022-08-27T11:00:23.422Z,0.9
2022-08-27T11:05:46.038Z,0.9
2022-08-27T11:17:37.941Z,1.1
2022-08-27T11:23:00.535Z,1.2
2022-08-27T11:28:29.606Z,1.1
2022-08-27T11:33:53.272Z,1.1
2022-08-27T11:39:18.909Z,1
2022-08-27T11:45:02.905Z,1
2022-08-27T11:50:25.710Z,1.1
2022-08-27T11:55:48.195Z,1.2
2022-08-27T12:01:10.909Z,1.2
2022-08-27T12:06:35.189Z,1.3
2022-08-27T12:11:58.380Z,1.3
2022-08-27T12:17:28.604Z,1.4
2022-08-27T12:22:51.101Z,1.3
2022-08-27T12:28:24.050Z,1.2
2022-08-27T12:33:52.512Z,1.2
2022-08-27T12:44:25.957Z,1.3
2022-08-27T12:49:51.540Z,1.3
2022-08-27T12:55:18.701Z,1.2
2022-08-27T13:00:41.286Z,1.3
2022-08-27T13:06:04.510Z,1.3
2022-08-27T13:11:27.195Z,1.3
2022-08-27T13:16:49.379Z,1.2
2022-08-27T13:22:12.336Z,1.3
2022-08-27T13:27:35.547Z,1.3
2022-08-27T13:32:58.855Z,1.2
2022-08-27T13:38:21.541Z,1.2
2022-08-27T13:43:44.080Z,1.2
2022-08-27T13:49:07.880Z,1.2
2022-08-27T13:54:31.216Z,1.1
2022-08-27T13:59:53.692Z,1
2022-08-27T14:05:17.253Z,1
2022-08-27T14:10:39.798Z,1
2022-08-27T14:16:02.175Z,1
2022-08-27T14:21:25.045Z,1.1
2022-08-27T14:26:47.637Z,1.1
2022-08-27T14:32:10.248Z,1.1
2022-08-27T14:37:33.354Z,1.1
2022-08-27T14:42:56.340Z,1.1
2022-08-27T14:48:19.179Z,1.1
2022-08-27T14:53:42.137Z,1.1
2022-08-27T14:59:04.807Z,1.1
2022-08-27T15:04:27.383Z,1
2022-08-27T15:09:53.550Z,1
2022-08-27T15:15:16.219Z,0.9
2022-08-27T15:20:38.831Z,0.8
2022-08-27T15:26:01.259Z,0.7
2022-08-27T15:31:23.884Z,0.7
2022-08-27T15:36:46.728Z,0.7
2022-08-27T15:42:09.197Z,0.6
2022-08-27T15:47:31.859Z,0.6
2022-08-27T15:52:54.164Z,0.6
2022-08-27T15:58:16.610Z,0.5
2022-08-27T16:03:38.842Z,0.5
2022-08-27T16:14:16.256Z,0.4
2022-08-27T16:19:38.767Z,0.4
2022-08-27T16:25:01.282Z,0.4
2022-08-27T16:30:23.773Z,0.3
2022-08-27T16:35:46.205Z,0.3
2022-08-27T16:41:14.707Z,0.2
2022-08-27T16:46:37.105Z,0.2
2022-08-27T16:51:59.662Z,0.2
2022-08-27T16:57:22.233Z,0.2
2022-08-27T17:02:47.555Z,0.2
2022-08-27T17:08:19.366Z,0.2
2022-08-27T17:13:49.462Z,0.1
2022-08-27T17:19:16.955Z,0.1
2022-08-27T17:24:40.068Z,0.1
2022-08-27T17:30:02.540Z,0.1
2022-08-27T17:35:26.970Z,0.1
2022-08-27T17:40:53.102Z,0.1
2022-08-27T17:46:18.787Z,0.1
2022-08-27T17:57:13.129Z,0.1
2022-08-27T18:02:35.651Z,0.1
2022-08-27T18:07:58.141Z,0
2022-08-27T18:13:29.074Z,0
2022-08-27T18:18:51.875Z,0
2022-08-27T18:24:42.823Z,0
2022-08-27T18:30:05.269Z,0
2022-08-27T18:35:27.813Z,0
2022-08-27T18:40:52.076Z,0
2022-08-27T18:46:22.021Z,0
2022-08-27T18:51:48.130Z,0
2022-08-27T18:57:15.522Z,0
2022-08-27T19:02:38.558Z,0
2022-08-27T19:13:24.234Z,0
2022-08-27T19:18:47.747Z,0
2022-08-27T19:24:10.290Z,0
2022-08-27T19:29:33.039Z,0
2022-08-27T19:34:55.706Z,0
2022-08-27T19:40:18.302Z,0
2022-08-27T19:45:41.214Z,0
2022-08-27T19:51:16.593Z,0
2022-08-27T19:56:39.580Z,0
2022-08-27T20:02:02.154Z,0
2022-08-27T20:07:24.534Z,0
2022-08-27T20:13:11.004Z,0
2022-08-27T20:18:33.507Z,0
2022-08-27T20:23:58.996Z,0
2022-08-27T20:29:32.777Z,0
2022-08-27T20:34:55.754Z,0
2022-08-27T20:40:21.179Z,0
2022-08-27T20:45:46.531Z,0
2022-08-27T20:51:15.213Z,0
2022-08-27T20:56:37.763Z,0
2022-08-27T21:02:01.275Z,0
2022-08-27T21:07:24.154Z,0
2022-08-27T21:12:57.386Z,0
2022-08-27T21:18:20.094Z,0
2022-08-27T21:23:52.719Z,0
2022-08-27T21:29:15.107Z,0
2022-08-27T21:34:40.883Z,0
2022-08-27T21:40:06.016Z,0
2022-08-27T21:45:29.248Z,0
2022-08-27T21:50:53.577Z,0
2022-08-27T21:56:16.812Z,0
2022-08-27T22:01:39.745Z,0
2022-08-27T22:07:02.335Z,0
2022-08-27T22:12:31.346Z,0
2022-08-27T22:17:53.749Z,0
2022-08-27T22:28:43.148Z,0
2022-08-27T22:34:15.048Z,0
2022-08-27T22:39:38.634Z,0
2022-08-27T22:45:01.586Z,0
2022-08-27T22:50:23.963Z,0
2022-08-27T22:55:50.575Z,0
2022-08-27T23:01:13.639Z,0
2022-08-27T23:06:38.900Z,0
2022-08-27T23:12:09.364Z,0
2022-08-27T23:17:31.925Z,0
2022-08-27T23:22:54.617Z,0
2022-08-27T23:28:17.646Z,0
2022-08-27T23:33:41.386Z,0
2022-08-27T23:39:03.930Z,0
2022-08-27T23:44:26.855Z,0
2022-08-27T23:49:53.997Z,0
2022-08-27T23:55:16.514Z,0
